KHLG/HLG METAR and TAF weather

Enter ICAO airport designator
Station Type Date Time Source
KHLG METAR 2022/01/26 07:53 UTC NOAA

KHLG 260753Z AUTO 00000KT 6SM BR OVC032 M11/M13 A3025 RMK AO2 SLP265 T11061128


Station Type Date Time Source
KHLG Decoded METAR 2022/01/26 07:53 UTC NOAA

WHEELING OHIO COUNTY AIRPORT, WV, United States (KHLG) 40-10N 080-39W 372M
Jan 26, 2022 - 02:53 AM EST / 2022.01.26 0753 UTC
Wind: Calm:0
Visibility: 6 mile(s):0
Sky conditions: overcast
Weather: mist
Temperature: 12.9 F (-10.6 C)
Dew Point: 9.0 F (-12.8 C)
Relative Humidity: 83%
Pressure (altimeter): 30.25 in. Hg (1024 hPa)
ob: KHLG 260753Z AUTO 00000KT 6SM BR OVC032 M11/M13 A3025 RMK AO2 SLP265 T11061128
cycle: 8

Station Type Date Time Source
KHLG TAF 2022/01/26 06:22 UTC NOAA

TAF KHLG 260520Z 2606/2706 27005KT P6SM BKN045
FM260900 27005KT P6SM SCT025 BKN035
TEMPO 2609/2612 BKN025
FM261500 28008KT P6SM BKN025
FM262000 25005KT P6SM BKN035
FM270000 00000KT P6SM SKC

Example: see airport list